createdAt,value
2019-05-15T00:37:55.952Z,55.20
2019-05-15T00:43:13.585Z,55.90
2019-05-15T01:08:29.730Z,58.10
2019-05-15T02:08:45.412Z,64.20
2019-05-15T03:02:20.171Z,68.00
2019-05-15T03:07:32.204Z,68.40
2019-05-15T03:13:18.906Z,68.40
2019-05-15T03:19:01.198Z,68.80
2019-05-15T03:30:32.333Z,69.00
2019-05-15T03:42:20.772Z,69.60
2019-05-15T03:47:43.254Z,70.10
2019-05-15T04:05:29.360Z,70.90
2019-05-15T04:18:20.753Z,71.20
2019-05-15T05:03:34.768Z,71.10
2019-05-15T05:10:10.022Z,71.00
2019-05-15T05:39:31.393Z,56.70
2019-05-15T05:51:14.231Z,43.50
2019-05-15T05:56:19.738Z,37.30
2019-05-15T06:01:28.117Z,32.50
2019-05-15T06:06:32.938Z,29.20
2019-05-15T06:11:38.668Z,26.70
2019-05-15T06:16:44.436Z,24.50
2019-05-15T06:21:56.851Z,22.80
2019-05-15T06:26:58.695Z,21.20
2019-05-15T06:32:04.530Z,19.10
2019-05-15T06:37:10.251Z,18.20
2019-05-15T06:42:18.599Z,16.60
2019-05-15T06:47:23.527Z,15.60
2019-05-15T06:52:29.198Z,15.20
2019-05-15T06:57:34.949Z,14.40
2019-05-15T07:02:40.822Z,15.00
2019-05-15T07:07:48.698Z,14.40
2019-05-15T07:12:54.043Z,14.20
2019-05-15T07:17:59.755Z,14.00
2019-05-15T07:23:05.456Z,14.10
2019-05-15T07:28:11.207Z,13.50
2019-05-15T07:33:20.507Z,13.40
2019-05-15T07:38:24.348Z,13.40
2019-05-15T07:43:30.082Z,13.20
2019-05-15T07:48:38.123Z,12.90
2019-05-15T07:53:43.315Z,12.50
2019-05-15T07:58:52.376Z,12.10
2019-05-15T08:04:09.696Z,11.20
2019-05-15T08:09:05.574Z,11.10
2019-05-15T08:14:11.294Z,10.50
2019-05-15T08:19:18.363Z,10.60
2019-05-15T08:24:24.209Z,10.00
2019-05-15T08:29:30.119Z,9.80
2019-05-15T08:34:36.045Z,9.50
2019-05-15T08:39:41.929Z,9.10
2019-05-15T08:44:49.014Z,8.70
2019-05-15T08:49:54.886Z,8.30
2019-05-15T08:55:00.700Z,7.90
2019-05-15T09:00:09.247Z,7.90
2019-05-15T09:05:14.488Z,7.60
2019-05-15T09:10:20.414Z,7.60
2019-05-15T09:15:26.178Z,7.10
2019-05-15T09:20:31.913Z,6.90
2019-05-15T09:25:38.977Z,6.10
2019-05-15T09:30:45.026Z,6.00
2019-05-15T09:35:50.746Z,5.70
2019-05-15T09:40:58.530Z,6.10
2019-05-15T09:46:03.910Z,6.60
2019-05-15T09:51:09.790Z,7.30
2019-05-15T09:56:15.543Z,8.50
2019-05-15T10:01:21.220Z,9.90
2019-05-15T10:06:28.697Z,11.40
2019-05-15T10:11:34.303Z,13.10
2019-05-15T10:16:39.911Z,14.70
2019-05-15T10:21:45.358Z,15.50
2019-05-15T10:26:50.844Z,15.70
2019-05-15T10:31:56.435Z,15.90
2019-05-15T10:37:02.144Z,16.50
2019-05-15T10:42:08.228Z,16.60
2019-05-15T10:47:13.840Z,17.00
2019-05-15T10:52:19.324Z,17.80
2019-05-15T10:57:24.847Z,18.60
2019-05-15T11:02:30.431Z,18.80
2019-05-15T11:07:35.909Z,19.20
2019-05-15T11:12:41.419Z,19.50
2019-05-15T11:17:49.252Z,19.80
2019-05-15T11:22:54.571Z,20.00
2019-05-15T11:28:00.055Z,20.50
2019-05-15T11:33:05.512Z,20.70
2019-05-15T11:38:11.098Z,20.00
2019-05-15T11:43:19.374Z,20.10
2019-05-15T11:48:23.730Z,19.70
2019-05-15T11:53:29.330Z,19.40
2019-05-15T11:58:34.758Z,19.80
2019-05-15T12:03:40.436Z,20.10
2019-05-15T12:08:45.863Z,19.60
2019-05-15T12:13:51.323Z,19.80
2019-05-15T12:19:08.398Z,19.70
2019-05-15T12:24:04.043Z,19.80
2019-05-15T12:29:09.981Z,19.70
2019-05-15T12:34:18.140Z,19.70
2019-05-15T12:39:22.954Z,19.80
2019-05-15T12:59:50.402Z,20.20
2019-05-15T13:04:55.870Z,20.20
2019-05-15T13:10:01.444Z,20.20
2019-05-15T13:15:08.184Z,20.40
2019-05-15T13:20:13.979Z,20.50
2019-05-15T13:25:19.575Z,20.80
2019-05-15T13:30:25.157Z,21.40
2019-05-15T13:35:30.591Z,21.40
2019-05-15T13:40:38.950Z,21.90
2019-05-15T13:45:43.330Z,21.80
2019-05-15T13:50:48.938Z,21.90
2019-05-15T13:55:54.374Z,22.30
2019-05-15T14:00:59.838Z,22.30
2019-05-15T14:06:05.268Z,22.70
2019-05-15T14:11:10.708Z,22.90
2019-05-15T14:16:16.141Z,23.10
2019-05-15T14:21:21.636Z,23.30
2019-05-15T14:26:27.108Z,23.30
2019-05-15T14:31:32.530Z,23.10
2019-05-15T14:36:37.972Z,23.30
2019-05-15T14:41:43.660Z,23.20
2019-05-15T14:46:50.865Z,23.00
2019-05-15T14:52:05.757Z,23.80
2019-05-15T14:57:03.438Z,23.90
2019-05-15T15:02:09.210Z,24.00
2019-05-15T15:07:14.712Z,24.90
2019-05-15T15:12:20.320Z,24.50
2019-05-15T15:17:25.977Z,24.80
2019-05-15T15:22:31.435Z,24.90
2019-05-15T15:27:39.820Z,25.10
2019-05-15T15:32:48.815Z,25.20
2019-05-15T15:37:53.064Z,25.00
2019-05-15T15:42:58.645Z,25.00
2019-05-15T15:48:04.201Z,25.30
2019-05-15T15:53:09.783Z,25.30
2019-05-15T15:58:15.359Z,25.80
2019-05-15T16:03:20.961Z,25.90
2019-05-15T16:08:28.506Z,25.80
2019-05-15T16:13:33.829Z,26.00
2019-05-15T16:18:39.517Z,26.30
2019-05-15T16:23:45.083Z,26.30
2019-05-15T16:28:50.619Z,26.50
2019-05-15T16:33:58.561Z,26.40
2019-05-15T16:39:07.987Z,26.20
2019-05-15T16:44:10.688Z,26.30
2019-05-15T16:49:18.711Z,26.50
2019-05-15T16:54:24.021Z,26.80
2019-05-15T16:59:35.505Z,26.60
2019-05-15T17:04:38.229Z,26.70
2019-05-15T17:09:43.821Z,27.00
2019-05-15T17:14:49.354Z,26.80
2019-05-15T17:19:54.916Z,27.00
2019-05-15T17:25:00.771Z,27.00
2019-05-15T17:30:08.959Z,27.30
2019-05-15T17:35:13.956Z,27.30
2019-05-15T17:40:19.721Z,27.50
2019-05-15T17:45:25.351Z,27.70
2019-05-15T17:50:45.087Z,27.70
2019-05-15T17:55:38.552Z,27.80
2019-05-15T18:00:44.080Z,28.00
2019-05-15T18:05:49.607Z,28.20
2019-05-15T18:10:55.081Z,28.40
2019-05-15T18:16:03.108Z,28.40
2019-05-15T18:21:08.853Z,28.50
2019-05-15T18:26:14.771Z,28.90
2019-05-15T18:31:20.259Z,29.10
2019-05-15T18:36:28.366Z,29.30
2019-05-15T18:41:32.932Z,29.50
2019-05-15T18:46:38.462Z,29.90
2019-05-15T18:51:44.164Z,30.20
2019-05-15T18:56:49.669Z,30.60
2019-05-15T19:01:55.076Z,30.80
2019-05-15T19:07:00.493Z,31.50
2019-05-15T19:12:08.699Z,31.60
2019-05-15T19:17:13.202Z,31.90
2019-05-15T19:22:19.252Z,32.20
2019-05-15T19:27:24.868Z,32.60
2019-05-15T19:32:30.297Z,32.80
2019-05-15T19:37:37.779Z,33.30
2019-05-15T19:42:43.244Z,33.80
2019-05-15T19:47:49.776Z,34.00
2019-05-15T19:52:55.340Z,34.40
2019-05-15T19:58:00.809Z,34.70
2019-05-15T20:03:08.233Z,35.10
2019-05-15T20:08:13.404Z,35.60
2019-05-15T20:13:18.837Z,36.20
2019-05-15T20:18:24.280Z,36.40
2019-05-15T20:23:29.737Z,36.70
2019-05-15T20:28:35.302Z,37.10
2019-05-15T20:33:40.977Z,37.50
2019-05-15T20:38:48.366Z,37.80
2019-05-15T20:43:54.204Z,38.00
2019-05-15T20:48:59.700Z,38.30
2019-05-15T20:54:05.183Z,38.70
2019-05-15T20:59:10.804Z,39.30
2019-05-15T21:04:22.591Z,39.60
2019-05-15T21:09:23.738Z,39.90
2019-05-15T21:14:29.450Z,40.00
2019-05-15T21:19:34.937Z,40.40
2019-05-15T21:24:40.552Z,40.60
2019-05-15T21:29:48.882Z,40.90
2019-05-15T21:34:53.553Z,41.30
2019-05-15T21:39:59.091Z,41.60
2019-05-15T21:45:04.813Z,41.70
2019-05-15T21:50:10.353Z,41.60
2019-05-15T21:55:17.901Z,41.80
2019-05-15T22:00:32.697Z,42.10
2019-05-15T22:05:38.546Z,42.10
2019-05-15T22:10:44.007Z,42.20
2019-05-15T22:15:50.139Z,42.20
2019-05-15T22:20:55.661Z,42.20
2019-05-15T22:26:01.304Z,42.60
2019-05-15T22:31:08.810Z,42.60
2019-05-15T22:36:13.932Z,42.70
2019-05-15T22:41:19.373Z,42.60
2019-05-15T22:46:25.879Z,43.00
2019-05-15T22:51:31.631Z,43.20
2019-05-15T22:56:37.845Z,43.50
2019-05-15T23:01:43.375Z,43.50
2019-05-15T23:06:48.807Z,43.80
2019-05-15T23:11:54.350Z,44.30
2019-05-15T23:17:00.136Z,44.80
2019-05-15T23:22:08.152Z,45.00
2019-05-15T23:27:12.751Z,45.40
2019-05-15T23:32:18.296Z,45.80
2019-05-15T23:37:23.717Z,45.90
2019-05-15T23:42:29.461Z,46.30
2019-05-15T23:47:34.915Z,46.70
2019-05-15T23:52:40.304Z,47.50
2019-05-15T23:57:48.280Z,48.10
